Logo AVAMET
Benvolgut visitant, si us plau, ingressa Recuperar contrasenya
AVAMET paisatges

Inforatge Gata

Dades diàries. Acumulats / Últims 30 dies disponibles

Data Temperatura (°C) Humitat rel. (%) Pressió rel. (hPa) Vent (km/h) Precipitació
Mínima Mitjana Màxima Amplitud
tèrmica
Mínima Mitjana Màxima Mínima Mitjana Màxima Predom. Mitjana Ràfega
màxima
Total
(mm)
Índex-n
Mínima Mitjana Màxima Mínima Mitjana Màxima n
0 a 1
P0 max
mm 5'
Dades mensuals acumulades fins l'últim dia disponible
02/2020 5,1 9,1 13,7 14,1 14,4 20,1 26,7 21,6 18 75 96 1.014 1.026 1.035   4,3 45,1 2,6
Dades anuals acumulades fins l'últim dia disponible
2020 2,3 8,0 15,6 12,5 13,3 18,2 26,7 24,4 18 77 96 1.012 1.025 1.035   5,2 93,3 142,4
Últims 30 dies disponibles
27-02-2020 7,3     15,4     23,1 15,8 35 56 76 1.018 1.020 1.021 W 4,7 27,4 0,0
26-02-2020 10,2     16,2     20,9 10,7 36 57 76 1.016 1.018 1.020 WNW 8,5 45,1 0,0
25-02-2020 9,4     18,1     26,3 16,9 18 45 75 1.014 1.017 1.021 WNW 7,4 32,2 0,0
24-02-2020 7,1     13,7     22,9 15,8 34 63 81 1.021 1.026 1.031 W 4,3 20,9 0,0
23-02-2020 5,6     12,1     20,1 14,5 42 70 87 1.031 1.033 1.035 W 5,1 24,1 0,0
22-02-2020 5,4     12,2     20,5 15,1 43 74 88 1.030 1.032 1.034 W 4,0 20,9 0,0
21-02-2020 7,0     11,3     17,0 10,0 67 84 92 1.027 1.030 1.032 W 4,7 19,3 0,0
20-02-2020 6,3     10,9     16,4 10,1 71 84 94 1.024 1.026 1.029 W 6,1 25,7 0,2
19-02-2020 9,2     12,7     15,1 5,9 80 89 94 1.029 1.031 1.033 ENE 1,4 19,3 0,0
18-02-2020 12,2     13,5     14,4 2,2 83 90 94 1.029 1.031 1.033 WNW 3,2 30,6 1,8 0,42 0,40
17-02-2020 8,5     14,2     22,1 13,6 57 84 96 1.023 1.025 1.029 ENE 2,4 29,0 0,2
16-02-2020 9,3     13,2     19,3 10,0 70 87 96 1.025 1.027 1.028 SSE 3,2 24,1 0,0
15-02-2020 8,1     12,8     18,8 10,7 70 84 92 1.025 1.026 1.028 W 4,7 30,6 0,0
14-02-2020 10,2     14,3     20,8 10,6 51 73 88 1.024 1.025 1.026 W 3,9 20,9 0,0
13-02-2020 10,3     14,9     21,4 11,1 62 82 93 1.021 1.022 1.024 W 2,3 17,7 0,0
12-02-2020 10,8     14,2     18,7 7,9 66 83 95 1.023 1.024 1.025 W 5,0 24,1 0,0
11-02-2020 11,8     16,1     23,6 11,8 47 72 93 1.021 1.024 1.027 W 4,2 20,9 0,0
10-02-2020 8,8     15,3     23,7 14,9 47 71 87 1.026 1.029 1.032 W 3,2 20,9 0,0
09-02-2020 10,7     13,4     18,0 7,3 66 84 92 1.027 1.030 1.032 W 4,8 29,0 0,0
08-02-2020 6,1     11,4     17,8 11,7 67 83 92 1.024 1.025 1.028 W 3,4 17,7 0,0
07-02-2020 7,6     10,7     14,5 6,9 66 80 90 1.023 1.025 1.026 W 4,2 19,3 0,0
06-02-2020 5,1     9,8     15,5 10,4 58 81 92 1.025 1.027 1.029 W 5,0 22,5 0,2
05-02-2020 7,9     12,0     14,8 6,9 68 84 93 1.027 1.029 1.031 W 1,9 19,3 0,2
04-02-2020 11,9     18,2     26,7 14,8 32 57 78 1.022 1.025 1.027 W 3,9 25,7 0,0
03-02-2020 12,3     17,2     24,2 11,9 49 69 82 1.027 1.028 1.030 W 5,8 20,9 0,0
02-02-2020 13,7     17,5     23,7 10,0 54 71 83 1.026 1.027 1.029 W 3,9 20,9 0,0
01-02-2020 13,3     18,3     23,7 10,4 53 68 81 1.021 1.023 1.026 W 5,1 38,6 0,0
31-01-2020 15,6     18,0     21,9 6,3 53 60 66 1.021 1.022 1.024 O 7,9 30,6 0,0
30-01-2020 11,2     16,4     23,0 11,8 41 64 84 1.020 1.022 1.023 W 3,1 32,2 0,0
29-01-2020 12,5     16,9     21,7 9,2 52 66 80 1.021 1.022 1.024 WNW 4,7 32,2 0,0
Últims 13 mesos disponibles
01/2020 2,3 7,0 15,6 11,1 13,3 16,5 23,0 20,7 58 78 92 1.015 1.025 1.033 W 6,0 93,3 139,8
12/2019 5,8 9,9 16,9 13,6 13,5 18,3 24,6 18,8 51 75 90 1.004 1.019 1.033 W 6,6 86,9 162,6
11/2019 5,6 11,8 19,3 15,6 14,7 19,7 27,1 21,5 45 60 84 999 1.011 1.018 WNW 8,9 66,0 11,8
10/2019 9,6 15,3 18,6 19,7 16,7 24,9 31,8 22,2 49 74 87 1.008 1.016 1.022 W 4,8 53,1 69,8
09/2019 14,6 19,3 23,0 23,4 23,1 28,0 33,2 18,6 60 78 86 1.010 1.017 1.022 SSO 5,4 64,8 128,6
08/2019 18,4 21,8 26,6 26,3 27,1 31,4 37,3 18,9 52 72 82 1.010 1.015 1.019 S 6,0 45,0 21,8
07/2019 19,8 22,1 27,2 26,7 28,8 31,8 38,2 18,4 46 66 79 1.005 1.014 1.021 SSO 6,0 58,0 2,0
06/2019 12,7 17,3 22,0 22,4 21,8 27,2 35,4 22,7 46 66 83 1.008 1.015 1.022 S 7,0 50,0 0,8
05/2019 8,9 13,7 21,4 18,4 19,5 23,1 29,1 20,2 52 71 82 1.005 1.015 1.024 SSO 6,1 63,0 12,6
04/2019 7,8 11,1 13,8 15,3 14,3 19,3 27,6 19,8 47 71 93 1.000 1.013 1.025 SO 8,3 64,8 265,4
03/2019 6,1 8,8 12,8 14,0 10,9 19,2 27,8 21,7 43 65 89 1.011 1.023 1.030 SSO 6,0 46,7 43,4
02/2019 3,4 6,7 11,6 11,7 12,6 17,6 22,4 19,0 37 67 85 996 1.025 1.034 SSO 6,4 72,4 0,0
01/2019 1,6 6,5 12,0 10,9 11,1 16,2 21,3 19,7 40 64 83 1.003 1.019 1.031 SO 7,6 58,0 5,4
Tots els anys disponibles
2019 1,6 13,8 27,2 18,2 10,9 23,1 38,2 36,6 0 69 93 0 1.011 1.034 SSO 6,6 86,9 724,2
2018 2,3 14,0 26,9 18,2 7,6 22,9 37,1 34,8 34 69 92 993 1.016 1.035 SSO 6,3 74,1 596,2
Temperatura (°C)
Humitat relativa (%)
Velocitat del vent i ràfega màxima (km/h)
Direcció del vent (°)
Pressió (hPa)
Precipitació (mm)
Nota sobre les dades: s'avisa a l'usuari de la provisionalitat i no oficialitat d'aquestes dades
Logo AVAMET blanc
Web allotjada a Sollutia
Llicència de Creative CommonsLa web d'AVAMET i els seus continguts estan subjectes a una llicència de
Reconeixement - No Comercial - Compartir igual
Últimes estacions:  Forcall (Ajuntament Soci), Sant Joanet (Soci), Marines (Soci), Vilallonga - Serpis (Soci), Sorita (AVAMET), Gorga (Soci) - - -